Time;durP1;ratioP1;P1;durP2;ratioP2;P2;SDS_P1;SDS_P2;PMS_P1;PMS_P2;Temp;Humidity;BMP_temperature;BMP_pressure;BME280_temperature;BME280_humidity;BME280_pressure;Samples;Min_cycle;Max_cycle;Signal;HPM_P1;HPM_P2
2021/05/24 00:01:27;;;;;;;10.52;4.63;;;12.60;68.80;;;;;;5057922;28;20047;-79
2021/05/24 00:03:53;;;;;;;6.82;4.53;;;12.60;69.00;;;;;;5059703;28;20567;-79
2021/05/24 00:06:19;;;;;;;7.50;4.88;;;12.60;69.10;;;;;;5064249;28;20032;-78
2021/05/24 00:08:44;;;;;;;6.65;5.10;;;12.60;69.20;;;;;;5092648;28;20408;-79
2021/05/24 00:11:10;;;;;;;8.88;4.30;;;12.50;69.30;;;;;;5104707;28;20074;-80
2021/05/24 00:13:44;;;;;;;8.55;4.45;;;12.50;69.20;;;;;;5068480;28;20153;-78
2021/05/24 00:16:10;;;;;;;7.18;4.47;;;12.50;69.30;;;;;;5070198;28;20052;-79
2021/05/24 00:18:37;;;;;;;5.47;3.80;;;12.50;69.30;;;;;;5086562;28;20504;-79
2021/05/24 00:21:05;;;;;;;7.70;4.35;;;12.50;69.60;;;;;;5070356;28;20044;-79
2021/05/24 00:23:31;;;;;;;7.63;4.25;;;12.50;69.60;;;;;;5064277;28;20033;-79
2021/05/24 00:25:57;;;;;;;6.07;4.30;;;12.50;69.90;;;;;;5056176;28;20048;-81
2021/05/24 00:28:23;;;;;;;6.63;4.70;;;12.50;70.00;;;;;;5055247;28;20040;-79
2021/05/24 00:30:50;;;;;;;6.25;4.22;;;12.50;70.40;;;;;;5088811;28;20040;-79
2021/05/24 00:33:17;;;;;;;7.25;4.25;;;12.50;70.60;;;;;;5047021;28;20056;-80
2021/05/24 00:35:43;;;;;;;7.45;4.63;;;12.50;71.00;;;;;;5070000;28;20060;-79
2021/05/24 00:38:11;;;;;;;8.02;4.50;;;12.50;71.40;;;;;;5064108;28;20045;-78
2021/05/24 00:40:38;;;;;;;6.38;5.03;;;12.50;71.50;;;;;;5083667;28;20123;-79
2021/05/24 00:43:05;;;;;;;7.88;4.75;;;12.50;71.70;;;;;;5051492;28;20212;-79
2021/05/24 00:45:30;;;;;;;6.03;4.85;;;12.50;71.90;;;;;;5071880;28;20045;-79
2021/05/24 00:47:56;;;;;;;9.82;4.65;;;12.50;72.20;;;;;;5069305;28;20041;-80
2021/05/24 00:50:22;;;;;;;6.97;4.72;;;12.50;72.50;;;;;;5040539;28;20518;-80
2021/05/24 00:52:48;;;;;;;7.78;4.53;;;12.50;72.70;;;;;;5096575;28;20064;-79
2021/05/24 00:55:14;;;;;;;6.13;4.90;;;12.50;72.70;;;;;;5050607;28;20048;-80
2021/05/24 00:57:42;;;;;;;9.73;4.82;;;12.50;72.80;;;;;;5088418;28;20511;-78
2021/05/24 01:00:10;;;;;;;6.47;4.70;;;12.40;72.80;;;;;;5075235;28;20040;-79
2021/05/24 01:02:36;;;;;;;6.65;4.78;;;12.40;72.80;;;;;;5073467;28;20065;-80
2021/05/24 01:05:02;;;;;;;8.82;5.57;;;12.40;72.80;;;;;;5071992;28;20040;-80
2021/05/24 01:07:31;;;;;;;7.72;5.55;;;12.40;72.80;;;;;;5072137;28;20044;-78
2021/05/24 01:09:57;;;;;;;9.38;5.40;;;12.40;72.90;;;;;;5052692;28;20053;-79
2021/05/24 01:12:23;;;;;;;10.38;5.53;;;12.40;72.80;;;;;;5069548;28;20598;-80
2021/05/24 01:14:48;;;;;;;5.85;4.90;;;12.40;72.80;;;;;;5105850;28;20064;-79
2021/05/24 01:17:15;;;;;;;8.68;5.25;;;12.40;72.70;;;;;;5088083;28;20052;-80
2021/05/24 01:19:47;;;;;;;6.90;5.00;;;12.40;72.60;;;;;;5105940;28;20167;-78
2021/05/24 01:22:21;;;;;;;8.13;5.03;;;12.40;72.50;;;;;;5071781;28;20048;-79
2021/05/24 01:24:47;;;;;;;6.70;5.15;;;12.40;72.40;;;;;;5092475;28;20441;-79
2021/05/24 01:27:13;;;;;;;6.70;4.43;;;12.40;72.30;;;;;;5063281;28;20481;-80
2021/05/24 01:29:39;;;;;;;6.72;5.53;;;12.40;72.10;;;;;;5055944;28;20102;-79
2021/05/24 01:32:05;;;;;;;9.70;5.82;;;12.40;72.20;;;;;;5055598;28;20530;-80
2021/05/24 01:34:32;;;;;;;7.43;4.78;;;12.40;72.30;;;;;;5055472;28;20068;-79
2021/05/24 01:36:58;;;;;;;6.68;4.78;;;12.40;72.40;;;;;;5072724;28;20429;-78
2021/05/24 01:39:23;;;;;;;7.95;5.25;;;12.40;72.40;;;;;;5055130;28;20158;-79
2021/05/24 01:41:50;;;;;;;8.00;5.25;;;12.40;72.50;;;;;;5055814;28;20040;-79
2021/05/24 01:44:33;;;;;;;6.32;4.45;;;12.40;72.60;;;;;;5071631;28;20453;-81
2021/05/24 01:47:04;;;;;;;8.57;4.57;;;12.40;72.80;;;;;;5056517;28;20042;-80
2021/05/24 01:49:30;;;;;;;8.52;4.40;;;12.30;72.30;;;;;;5070704;28;20036;-80
2021/05/24 01:51:56;;;;;;;8.70;5.40;;;12.30;72.30;;;;;;5054642;28;20523;-80
2021/05/24 01:54:22;;;;;;;7.05;4.45;;;12.30;72.20;;;;;;5062378;28;20044;-80
2021/05/24 01:56:48;;;;;;;7.75;4.70;;;12.30;72.20;;;;;;5074963;28;20040;-80
2021/05/24 01:59:13;;;;;;;8.82;4.95;;;12.30;72.20;;;;;;5074694;28;20063;-81
2021/05/24 02:01:39;;;;;;;6.32;4.63;;;12.30;72.20;;;;;;5075228;28;20374;-80
2021/05/24 02:04:05;;;;;;;7.35;4.38;;;12.30;72.30;;;;;;5092098;28;20048;-80
2021/05/24 02:06:31;;;;;;;8.50;4.30;;;12.30;72.50;;;;;;5081069;28;20079;-80
2021/05/24 02:08:57;;;;;;;5.90;4.15;;;12.30;72.40;;;;;;5054796;28;20072;-80
2021/05/24 02:11:23;;;;;;;8.32;4.32;;;12.30;72.40;;;;;;5071038;28;20052;-80
2021/05/24 02:13:49;;;;;;;7.25;4.55;;;12.30;72.40;;;;;;5071143;28;20064;-80
2021/05/24 02:16:15;;;;;;;6.35;3.90;;;12.30;72.30;;;;;;5054196;28;20072;-80
2021/05/24 02:18:56;;;;;;;5.22;4.13;;;12.30;72.40;;;;;;5057118;28;20102;-80
2021/05/24 02:21:22;;;;;;;6.20;4.18;;;12.30;72.40;;;;;;5054183;28;20040;-79
2021/05/24 02:23:48;;;;;;;10.55;4.72;;;12.30;72.40;;;;;;5054782;28;20422;-79
2021/05/24 02:26:14;;;;;;;6.47;4.20;;;12.30;72.60;;;;;;5071171;28;20515;-82
2021/05/24 02:28:39;;;;;;;6.75;4.13;;;12.30;72.30;;;;;;5054681;28;20123;-80
2021/05/24 02:31:08;;;;;;;8.27;4.90;;;12.30;73.20;;;;;;5055357;28;20036;-79
2021/05/24 02:33:34;;;;;;;7.80;4.32;;;12.30;72.30;;;;;;5054048;28;20182;-78
2021/05/24 02:36:00;;;;;;;8.15;3.67;;;12.30;72.40;;;;;;5053482;28;20041;-79
2021/05/24 02:38:26;;;;;;;5.47;3.60;;;12.30;72.40;;;;;;5070749;28;20052;-80
2021/05/24 02:40:51;;;;;;;7.55;3.60;;;12.30;72.70;;;;;;5054732;28;20067;-79
2021/05/24 02:43:18;;;;;;;9.07;3.97;;;12.30;72.70;;;;;;5053906;28;20048;-81
2021/05/24 02:45:46;;;;;;;7.75;3.90;;;12.30;72.90;;;;;;5071146;28;20090;-78
2021/05/24 02:48:12;;;;;;;6.65;3.83;;;12.20;72.80;;;;;;5087844;28;20052;-78
2021/05/24 02:50:38;;;;;;;5.57;3.53;;;12.30;73.00;;;;;;5070144;28;20341;-79
2021/05/24 02:53:04;;;;;;;8.02;3.25;;;12.20;72.80;;;;;;5070614;28;20542;-78
2021/05/24 02:55:30;;;;;;;6.20;3.00;;;12.20;72.90;;;;;;5069855;28;20475;-80
2021/05/24 02:57:56;;;;;;;6.97;3.30;;;12.20;72.80;;;;;;5037158;28;20055;-78
2021/05/24 03:00:24;;;;;;;8.55;3.28;;;12.20;72.70;;;;;;5069906;28;20079;-79
2021/05/24 03:02:50;;;;;;;7.88;3.08;;;12.20;72.70;;;;;;5054493;28;20044;-78
2021/05/24 03:05:18;;;;;;;8.35;3.20;;;12.20;72.50;;;;;;5070867;28;20098;-79
2021/05/24 03:07:44;;;;;;;5.82;3.10;;;12.20;72.60;;;;;;5070250;28;20094;-79
2021/05/24 03:10:10;;;;;;;4.93;3.05;;;12.20;72.40;;;;;;5054452;28;20041;-80
2021/05/24 03:12:36;;;;;;;7.97;3.30;;;12.20;72.40;;;;;;5069625;28;20044;-79
2021/05/24 03:15:02;;;;;;;4.53;2.97;;;12.20;72.40;;;;;;5070786;28;20036;-81
2021/05/24 03:17:28;;;;;;;10.80;4.05;;;12.20;72.30;;;;;;5069328;28;20044;-79
2021/05/24 03:19:54;;;;;;;5.00;3.20;;;12.20;72.20;;;;;;5054195;28;20197;-80
2021/05/24 03:22:20;;;;;;;7.88;3.10;;;12.20;72.30;;;;;;5070077;28;20040;-82
2021/05/24 03:24:46;;;;;;;9.45;2.88;;;12.20;72.10;;;;;;5086585;28;20041;-78
2021/05/24 03:27:11;;;;;;;5.30;2.78;;;12.20;71.90;;;;;;5054277;28;20044;-80
2021/05/24 03:29:37;;;;;;;4.05;2.30;;;12.20;71.90;;;;;;5036722;28;20052;-79
2021/05/24 03:32:03;;;;;;;5.07;2.50;;;12.20;71.90;;;;;;5053961;28;20552;-79
2021/05/24 03:34:29;;;;;;;6.50;2.88;;;12.20;71.90;;;;;;5052923;28;20051;-80
2021/05/24 03:36:54;;;;;;;6.93;2.47;;;12.20;71.90;;;;;;5053776;28;20138;-80
2021/05/24 03:39:20;;;;;;;6.03;2.35;;;12.20;71.90;;;;;;5070293;28;20418;-78
2021/05/24 03:41:52;;;;;;;6.25;2.78;;;12.20;71.90;;;;;;5069207;28;20074;-80
2021/05/24 03:44:21;;;;;;;4.10;2.35;;;12.20;71.90;;;;;;5054771;28;20446;-79
2021/05/24 03:46:49;;;;;;;5.53;2.65;;;12.20;71.90;;;;;;5075305;28;20036;-79
2021/05/24 03:49:15;;;;;;;5.85;2.30;;;12.20;71.90;;;;;;5069330;28;20053;-79
2021/05/24 03:51:41;;;;;;;6.90;2.50;;;12.20;71.90;;;;;;5052559;28;20139;-79
2021/05/24 03:54:07;;;;;;;4.15;2.65;;;12.20;71.90;;;;;;5077276;28;20048;-79
2021/05/24 03:56:32;;;;;;;3.97;2.17;;;12.20;71.80;;;;;;5072159;28;20503;-79
2021/05/24 03:58:58;;;;;;;4.03;2.50;;;12.20;71.90;;;;;;5072931;28;20042;-80
2021/05/24 04:01:24;;;;;;;5.30;2.40;;;12.20;71.80;;;;;;5072677;28;20048;-80
2021/05/24 04:03:52;;;;;;;5.88;2.53;;;12.20;71.80;;;;;;5072619;28;20093;-81
2021/05/24 04:06:18;;;;;;;5.20;2.75;;;12.20;71.90;;;;;;5073520;28;20123;-79
2021/05/24 04:08:46;;;;;;;5.72;2.47;;;12.20;71.80;;;;;;5072291;28;20052;-78
2021/05/24 04:11:14;;;;;;;5.85;2.17;;;12.20;71.80;;;;;;5083262;28;20044;-81
2021/05/24 04:13:45;;;;;;;6.20;2.50;;;12.20;71.70;;;;;;5064770;28;20500;-78
2021/05/24 04:16:11;;;;;;;5.65;2.67;;;12.30;71.80;;;;;;5054388;28;20473;-78
2021/05/24 04:18:41;;;;;;;4.95;2.20;;;12.30;71.80;;;;;;5052399;28;20073;-79
2021/05/24 04:21:07;;;;;;;3.45;2.10;;;12.30;71.70;;;;;;5053211;28;20044;-80
2021/05/24 04:23:33;;;;;;;5.43;2.30;;;12.30;71.70;;;;;;5068874;28;20458;-79
2021/05/24 04:25:59;;;;;;;6.03;2.45;;;12.30;71.60;;;;;;5052899;28;20366;-79
2021/05/24 04:28:24;;;;;;;5.95;2.33;;;12.30;71.60;;;;;;5053184;28;20044;-81
2021/05/24 04:30:50;;;;;;;4.25;2.22;;;12.30;71.60;;;;;;5068910;28;20120;-79
2021/05/24 04:33:16;;;;;;;4.60;2.17;;;12.40;71.70;;;;;;5086208;28;20488;-80
2021/05/24 04:35:42;;;;;;;4.55;1.80;;;12.30;71.60;;;;;;5069166;28;20048;-79
2021/05/24 04:38:08;;;;;;;4.68;2.10;;;12.30;71.60;;;;;;5053087;28;20050;-79
2021/05/24 04:40:33;;;;;;;4.57;2.47;;;12.40;71.60;;;;;;5052440;28;20404;-78
2021/05/24 04:42:59;;;;;;;5.05;2.45;;;12.40;71.50;;;;;;5052904;28;20503;-79
2021/05/24 04:45:26;;;;;;;3.03;2.00;;;12.40;71.40;;;;;;5069394;28;20457;-80
2021/05/24 04:47:51;;;;;;;4.65;2.03;;;12.40;71.40;;;;;;5052076;28;20055;-77
2021/05/24 04:50:20;;;;;;;4.97;2.40;;;12.40;71.50;;;;;;5070437;28;20044;-78
2021/05/24 04:52:45;;;;;;;2.97;2.20;;;12.40;71.60;;;;;;5051314;28;20412;-80
2021/05/24 04:55:15;;;;;;;5.30;2.00;;;12.40;71.60;;;;;;5052807;28;20040;-78
2021/05/24 04:57:41;;;;;;;5.03;2.20;;;12.40;71.60;;;;;;5068678;28;20044;-79
2021/05/24 05:00:11;;;;;;;6.50;3.00;;;12.40;71.60;;;;;;5072926;28;20558;-79
2021/05/24 05:02:37;;;;;;;4.90;2.38;;;12.40;71.70;;;;;;5056325;28;20042;-81
2021/05/24 05:05:04;;;;;;;4.85;3.08;;;12.40;71.60;;;;;;5055449;28;20461;-79
2021/05/24 05:07:31;;;;;;;3.60;2.08;;;12.50;71.60;;;;;;5072692;28;20131;-80
2021/05/24 05:09:58;;;;;;;4.18;2.00;;;12.50;71.70;;;;;;5056106;28;20044;-81
2021/05/24 05:12:27;;;;;;;6.03;2.50;;;12.50;71.70;;;;;;5073128;28;20075;-79
2021/05/24 05:14:58;;;;;;;8.20;2.10;;;12.50;71.60;;;;;;5055845;28;20616;-79
2021/05/24 05:17:24;;;;;;;3.50;2.35;;;12.50;71.60;;;;;;5040280;28;20099;-79
2021/05/24 05:19:50;;;;;;;4.82;2.00;;;12.50;71.60;;;;;;5055124;28;20472;-79
2021/05/24 05:22:15;;;;;;;4.93;2.20;;;12.60;71.70;;;;;;5072764;28;20039;-80
2021/05/24 05:24:41;;;;;;;5.45;2.53;;;12.60;71.60;;;;;;5072041;28;20087;-79
2021/05/24 05:27:07;;;;;;;4.85;2.28;;;12.60;71.60;;;;;;5056322;28;20048;-78
2021/05/24 05:29:33;;;;;;;6.63;2.40;;;12.60;71.50;;;;;;5056230;28;20132;-79
2021/05/24 05:31:59;;;;;;;4.68;2.28;;;12.60;71.50;;;;;;5071422;28;20465;-79
2021/05/24 05:34:25;;;;;;;4.05;2.30;;;12.70;71.50;;;;;;5072547;28;20123;-79
2021/05/24 05:36:50;;;;;;;4.93;2.35;;;12.70;71.40;;;;;;5054853;28;20051;-79
2021/05/24 05:39:16;;;;;;;4.72;2.40;;;12.70;71.50;;;;;;5055695;28;20169;-79
2021/05/24 05:41:42;;;;;;;3.63;1.85;;;12.80;71.60;;;;;;5071827;28;20457;-79
2021/05/24 05:44:08;;;;;;;5.47;2.17;;;12.80;71.50;;;;;;5055632;28;20496;-79
2021/05/24 05:46:36;;;;;;;4.15;2.00;;;12.80;71.50;;;;;;5055534;28;20040;-79
2021/05/24 05:49:03;;;;;;;5.13;2.33;;;12.90;71.50;;;;;;5071928;28;20047;-77
2021/05/24 05:51:28;;;;;;;4.95;2.08;;;12.90;71.50;;;;;;5055608;28;20041;-78
2021/05/24 05:53:56;;;;;;;4.25;2.20;;;12.90;71.50;;;;;;5054889;28;20124;-80
2021/05/24 05:56:27;;;;;;;5.72;2.35;;;13.00;71.50;;;;;;5072530;28;20064;-79
2021/05/24 05:58:53;;;;;;;4.97;2.10;;;13.00;71.50;;;;;;5055032;28;20044;-79
2021/05/24 06:01:18;;;;;;;6.47;2.50;;;13.00;71.50;;;;;;5054551;28;20044;-81
2021/05/24 06:03:44;;;;;;;6.80;2.92;;;13.10;71.50;;;;;;5070862;28;20040;-82
2021/05/24 06:06:13;;;;;;;3.35;2.15;;;13.10;71.50;;;;;;5055623;28;20052;-80
2021/05/24 06:08:39;;;;;;;4.95;1.92;;;13.20;71.50;;;;;;5055565;28;20044;-80
2021/05/24 06:11:05;;;;;;;4.90;2.30;;;13.20;71.40;;;;;;5054582;28;20600;-79
2021/05/24 06:13:31;;;;;;;7.47;2.95;;;13.30;71.30;;;;;;5071766;28;20124;-80
2021/05/24 06:15:57;;;;;;;7.47;2.38;;;13.30;71.30;;;;;;5054796;28;20131;-80
2021/05/24 06:18:22;;;;;;;3.95;2.35;;;13.40;71.30;;;;;;5071700;28;20486;-81
2021/05/24 06:20:48;;;;;;;4.68;2.22;;;13.40;71.20;;;;;;5053998;28;20443;-81
2021/05/24 06:23:14;;;;;;;5.43;2.38;;;13.50;71.10;;;;;;5038412;28;20066;-78
2021/05/24 06:25:41;;;;;;;6.03;2.17;;;13.50;70.90;;;;;;5054417;28;20125;-79
2021/05/24 06:28:08;;;;;;;5.68;2.28;;;13.60;70.80;;;;;;5054828;28;20694;-80
2021/05/24 06:30:34;;;;;;;4.88;2.15;;;13.70;70.70;;;;;;5055052;28;20157;-80
2021/05/24 06:33:02;;;;;;;5.65;2.38;;;13.70;70.60;;;;;;5070531;28;20068;-81
2021/05/24 06:35:27;;;;;;;6.53;1.90;;;13.80;70.50;;;;;;5055074;28;20067;-79
2021/05/24 06:37:53;;;;;;;4.75;1.92;;;13.80;70.20;;;;;;5054270;28;20423;-79
2021/05/24 06:40:19;;;;;;;4.80;2.15;;;13.90;70.20;;;;;;5071115;28;20477;-78
2021/05/24 06:42:45;;;;;;;6.20;2.20;;;13.90;70.10;;;;;;5071063;28;20093;-79
2021/05/24 06:45:12;;;;;;;6.88;2.22;;;14.00;70.00;;;;;;5070254;28;20045;-78
2021/05/24 06:47:41;;;;;;;4.55;1.83;;;14.10;69.80;;;;;;5070952;28;20074;-79
2021/05/24 06:50:11;;;;;;;5.10;2.03;;;14.10;69.50;;;;;;5070443;28;20556;-79
2021/05/24 06:52:37;;;;;;;3.72;1.73;;;14.20;69.50;;;;;;5071289;28;20086;-80
2021/05/24 06:55:03;;;;;;;5.15;2.35;;;14.30;69.40;;;;;;5053688;28;20404;-80
2021/05/24 06:57:29;;;;;;;6.80;2.20;;;14.30;69.10;;;;;;5054168;28;20064;-79
2021/05/24 06:59:55;;;;;;;4.75;2.00;;;14.40;69.20;;;;;;5072354;28;20487;-78
2021/05/24 07:02:20;;;;;;;5.88;2.17;;;14.50;69.00;;;;;;5073459;28;20109;-79
2021/05/24 07:04:46;;;;;;;6.50;1.85;;;14.50;68.90;;;;;;5057480;28;20553;-79
2021/05/24 07:07:12;;;;;;;3.55;1.70;;;14.60;68.80;;;;;;5056533;28;20043;-78
2021/05/24 07:09:38;;;;;;;6.30;2.10;;;14.70;68.60;;;;;;5057270;28;20047;-78
2021/05/24 07:12:05;;;;;;;4.38;2.03;;;14.80;68.60;;;;;;5073174;28;20067;-79
2021/05/24 07:14:31;;;;;;;4.55;2.03;;;14.80;68.40;;;;;;5073147;28;20071;-79
2021/05/24 07:16:57;;;;;;;5.25;1.80;;;14.90;68.10;;;;;;5053618;28;20118;-79
2021/05/24 07:19:23;;;;;;;5.07;1.80;;;14.90;68.00;;;;;;5072250;28;20092;-79
2021/05/24 07:21:48;;;;;;;5.20;2.08;;;15.00;67.80;;;;;;5089032;28;20202;-79
2021/05/24 07:24:14;;;;;;;4.82;1.73;;;15.10;67.60;;;;;;5070024;28;20043;-79
2021/05/24 07:26:40;;;;;;;6.22;1.90;;;15.10;67.50;;;;;;5070232;28;20039;-79
2021/05/24 07:29:06;;;;;;;3.72;1.80;;;15.10;67.20;;;;;;5056177;28;20061;-80
2021/05/24 07:31:32;;;;;;;4.07;1.80;;;15.20;67.00;;;;;;5055070;28;20043;-79
2021/05/24 07:33:57;;;;;;;5.75;1.80;;;15.20;66.80;;;;;;5071331;28;20036;-81
2021/05/24 07:36:23;;;;;;;4.65;1.50;;;15.20;66.70;;;;;;5072730;28;20101;-81
2021/05/24 07:38:49;;;;;;;6.75;2.05;;;15.30;66.80;;;;;;5073202;28;20048;-78
2021/05/24 07:41:15;;;;;;;5.10;1.92;;;15.30;66.50;;;;;;5066374;28;20042;-74
2021/05/24 07:43:42;;;;;;;3.63;1.48;;;15.30;66.50;;;;;;5087616;28;20048;-77
2021/05/24 07:46:10;;;;;;;3.38;1.67;;;15.30;66.20;;;;;;5069155;28;20048;-80
2021/05/24 07:48:36;;;;;;;4.95;1.77;;;15.40;65.90;;;;;;5070510;28;20094;-77
2021/05/24 07:51:03;;;;;;;3.83;1.38;;;15.40;65.70;;;;;;5071721;28;20473;-79
2021/05/24 07:53:32;;;;;;;5.20;1.73;;;15.50;65.20;;;;;;5072474;28;20043;-79
2021/05/24 07:55:58;;;;;;;2.88;1.50;;;15.50;65.10;;;;;;5072323;28;20052;-84
2021/05/24 07:58:32;;;;;;;2.75;1.17;;;15.50;65.00;;;;;;5071735;28;20097;-79
2021/05/24 08:00:58;;;;;;;5.65;1.70;;;15.50;64.80;;;;;;5071952;28;20491;-86
2021/05/24 08:03:24;;;;;;;5.75;1.92;;;15.50;64.60;;;;;;5072062;28;20036;-81
2021/05/24 08:05:50;;;;;;;4.60;1.42;;;15.60;64.50;;;;;;5055589;28;20036;-80
2021/05/24 08:08:16;;;;;;;5.72;2.05;;;15.60;64.20;;;;;;5071778;28;20040;-78
2021/05/24 08:10:42;;;;;;;4.28;1.30;;;15.60;64.00;;;;;;5088505;28;20134;-78
2021/05/24 08:13:07;;;;;;;5.18;1.50;;;15.60;63.80;;;;;;5054079;28;20115;-78
2021/05/24 08:15:34;;;;;;;3.08;1.42;;;15.60;63.70;;;;;;5055079;28;20105;-77
2021/05/24 08:18:02;;;;;;;3.85;1.40;;;15.70;63.60;;;;;;5054605;28;20505;-83
2021/05/24 08:20:28;;;;;;;3.70;1.80;;;15.60;63.40;;;;;;5069785;28;20285;-72
2021/05/24 08:22:54;;;;;;;4.07;1.48;;;15.60;63.70;;;;;;5087606;28;20055;-79
2021/05/24 08:25:20;;;;;;;3.42;1.60;;;15.60;64.20;;;;;;5060353;28;20503;-80
2021/05/24 08:27:47;;;;;;;3.25;1.50;;;15.50;64.60;;;;;;5080326;28;20059;-81
2021/05/24 08:30:13;;;;;;;4.03;1.58;;;15.50;65.00;;;;;;5080323;28;20047;-79
2021/05/24 08:32:39;;;;;;;3.45;1.65;;;15.60;65.30;;;;;;5082822;28;20058;-79
2021/05/24 08:35:06;;;;;;;3.88;1.65;;;15.50;65.40;;;;;;5083974;28;20472;-82
2021/05/24 08:37:32;;;;;;;3.97;2.15;;;15.60;65.70;;;;;;5068405;28;20048;-81
2021/05/24 08:39:58;;;;;;;3.08;2.05;;;15.60;65.90;;;;;;5098965;28;20047;-77
2021/05/24 08:42:28;;;;;;;2.95;1.52;;;15.60;66.00;;;;;;5083438;28;20040;-81
2021/05/24 08:44:55;;;;;;;3.95;2.17;;;15.60;66.30;;;;;;5068999;28;20139;-79
2021/05/24 08:47:24;;;;;;;3.92;2.30;;;15.60;66.30;;;;;;5083237;28;20056;-80
2021/05/24 08:49:52;;;;;;;5.07;1.90;;;15.50;66.40;;;;;;5084612;28;20047;-80
2021/05/24 08:52:17;;;;;;;4.57;2.00;;;15.50;66.40;;;;;;5084927;28;20052;-83
2021/05/24 08:54:43;;;;;;;3.42;1.85;;;15.40;66.50;;;;;;5084905;28;20051;-78
2021/05/24 08:57:09;;;;;;;3.85;1.95;;;15.30;66.60;;;;;;5084878;28;20039;-83
2021/05/24 08:59:37;;;;;;;4.65;2.85;;;15.30;66.80;;;;;;5069155;28;20047;-79
2021/05/24 09:02:03;;;;;;;5.45;2.30;;;15.20;67.10;;;;;;5065463;28;20040;-81
2021/05/24 09:04:47;;;;;;;4.95;2.20;;;15.10;67.40;;;;;;5060052;28;20882;-81
2021/05/24 09:07:17;;;;;;;4.32;1.90;;;15.10;67.80;;;;;;5044572;28;20318;-79
2021/05/24 09:09:58;;;;;;;3.95;2.28;;;15.00;68.00;;;;;;5075348;28;20115;-81
2021/05/24 09:12:30;;;;;;;5.88;2.00;;;14.90;68.60;;;;;;5090895;28;20480;-83
2021/05/24 09:15:08;;;;;;;;;;;14.90;68.60;;;;;;5077344;28;20052;-84
2021/05/24 09:17:52;;;;;;;4.90;1.90;;;14.80;69.10;;;;;;5102798;28;19924;-83
2021/05/24 09:20:28;;;;;;;2.83;1.73;;;14.70;69.30;;;;;;5058772;28;20093;-85
2021/05/24 09:23:24;;;;;;;3.97;1.90;;;14.60;69.40;;;;;;5090562;28;20454;-79
2021/05/24 09:25:58;;;;;;;2.67;1.90;;;14.60;70.10;;;;;;5093392;28;20032;-83
2021/05/24 09:28:24;;;;;;;4.57;2.03;;;14.50;69.90;;;;;;5100179;28;20040;-82
2021/05/24 09:30:54;;;;;;;2.83;1.73;;;14.40;70.10;;;;;;5083467;28;20055;-85
2021/05/24 09:33:26;;;;;;;3.08;1.92;;;14.40;70.30;;;;;;5093446;28;20037;-83
2021/05/24 09:35:52;;;;;;;5.57;2.15;;;14.40;70.50;;;;;;5079599;28;20040;-83
2021/05/24 09:38:22;;;;;;;4.95;2.28;;;14.30;70.60;;;;;;5078885;28;20051;-82
2021/05/24 09:40:53;;;;;;;4.40;2.13;;;14.30;70.90;;;;;;5091249;28;20047;-82
2021/05/24 09:43:22;;;;;;;5.50;2.88;;;14.30;71.10;;;;;;5074345;28;20044;-83
2021/05/24 09:45:48;;;;;;;3.00;2.03;;;14.30;71.20;;;;;;5075968;28;20048;-87
2021/05/24 09:48:16;;;;;;;5.18;2.20;;;14.30;71.30;;;;;;5059362;28;20479;-85
2021/05/24 09:50:52;;;;;;;3.65;2.17;;;14.30;71.40;;;;;;5090738;28;20044;-83
2021/05/24 09:53:24;;;;;;;4.15;2.33;;;14.40;71.50;;;;;;5074846;28;20537;-83
2021/05/24 09:55:50;;;;;;;3.53;2.45;;;14.40;71.50;;;;;;5043456;28;20093;-80
2021/05/24 09:58:16;;;;;;;4.80;2.42;;;14.50;71.40;;;;;;5091871;28;20056;-84
2021/05/24 10:03:12;;;;;;;3.63;2.45;;;14.60;71.40;;;;;;5058450;28;20058;-84
2021/05/24 10:05:49;;;;;;;4.68;2.50;;;14.70;71.50;;;;;;5059584;28;20598;-82
2021/05/24 10:08:15;;;;;;;4.00;2.30;;;14.70;72.30;;;;;;5092006;28;20048;-83
2021/05/24 10:10:52;;;;;;;5.28;2.50;;;14.80;71.40;;;;;;5075850;28;20044;-83
2021/05/24 10:13:18;;;;;;;4.88;2.58;;;14.90;71.40;;;;;;5056896;28;20105;-86
2021/05/24 10:15:45;;;;;;;4.03;2.35;;;14.90;71.30;;;;;;5073786;28;20120;-84
2021/05/24 10:18:12;;;;;;;5.32;2.75;;;15.00;71.40;;;;;;5070971;28;20044;-82
2021/05/24 10:20:37;;;;;;;5.35;2.90;;;15.00;71.30;;;;;;5067331;28;20047;-75
2021/05/24 10:23:05;;;;;;;4.68;2.50;;;15.10;71.10;;;;;;5071868;28;20044;-81
2021/05/24 10:25:33;;;;;;;5.38;2.78;;;15.10;71.10;;;;;;5067499;28;20036;-81
2021/05/24 10:27:59;;;;;;;4.68;2.75;;;15.20;71.00;;;;;;5049661;28;20166;-82
2021/05/24 10:30:25;;;;;;;5.35;2.53;;;15.30;70.80;;;;;;5071725;28;20138;-83
2021/05/24 10:32:57;;;;;;;5.97;2.97;;;15.40;70.40;;;;;;5070846;28;20048;-81
2021/05/24 10:35:37;;;;;;;4.45;2.65;;;15.40;70.20;;;;;;5054241;28;20134;-82
2021/05/24 10:38:30;;;;;;;4.45;2.58;;;15.50;70.10;;;;;;5081934;28;20044;-81
2021/05/24 10:41:09;;;;;;;4.35;2.42;;;15.50;70.30;;;;;;5088459;28;20040;-76
2021/05/24 10:43:41;;;;;;;5.20;2.50;;;15.60;70.10;;;;;;5090418;28;20051;-76
2021/05/24 10:46:26;;;;;;;4.70;2.80;;;15.70;69.80;;;;;;5092141;28;20101;-82
2021/05/24 10:49:03;;;;;;;4.43;3.30;;;15.80;69.90;;;;;;5089495;28;20286;-79
2021/05/24 10:51:47;;;;;;;3.65;2.38;;;15.90;69.40;;;;;;5056264;28;20054;-79
2021/05/24 10:54:23;;;;;;;6.03;2.72;;;16.00;69.20;;;;;;5090070;28;20051;-79
2021/05/24 10:57:01;;;;;;;4.43;2.92;;;16.00;69.00;;;;;;5084247;28;20070;-83
2021/05/24 10:59:48;;;;;;;5.57;3.15;;;16.10;68.90;;;;;;5083542;28;20897;-79
2021/05/24 11:02:23;;;;;;;7.00;3.38;;;16.20;68.60;;;;;;5057634;28;20515;-79
2021/05/24 11:04:55;;;;;;;7.22;3.15;;;16.20;68.30;;;;;;5084394;28;20040;-80
2021/05/24 11:07:36;;;;;;;8.35;3.15;;;16.20;68.10;;;;;;5089537;28;20488;-79
2021/05/24 11:10:17;;;;;;;3.90;2.72;;;16.20;68.00;;;;;;5087215;28;20090;-79
2021/05/24 11:12:56;;;;;;;6.82;2.63;;;16.20;67.80;;;;;;5070369;28;20548;-80
2021/05/24 11:15:33;;;;;;;4.20;2.53;;;16.20;67.80;;;;;;5076708;28;20063;-79
2021/05/24 11:17:59;;;;;;;4.63;2.70;;;16.20;67.60;;;;;;5041319;28;20058;-81
2021/05/24 11:20:34;;;;;;;4.65;2.78;;;16.10;67.50;;;;;;5073447;28;20547;-82
2021/05/24 11:26:16;;;;;;;5.10;3.25;;;16.10;67.60;;;;;;5057799;28;20403;-82
2021/05/24 11:29:02;;;;;;;4.18;2.92;;;16.10;67.90;;;;;;5065415;28;20066;-79
2021/05/24 11:31:35;;;;;;;5.30;2.63;;;16.00;68.00;;;;;;5080354;28;20044;-80
2021/05/24 11:34:08;;;;;;;4.28;2.78;;;16.00;68.00;;;;;;5089350;28;20110;-80
2021/05/24 11:36:38;;;;;;;3.53;2.40;;;16.00;68.00;;;;;;5045750;28;20044;-79
2021/05/24 11:39:16;;;;;;;4.45;2.03;;;16.00;67.70;;;;;;5086704;28;20040;-80
2021/05/24 11:42:09;;;;;;;5.90;2.95;;;16.00;67.70;;;;;;5088463;28;20048;-81
2021/05/24 11:44:48;;;;;;;4.32;2.28;;;16.10;67.80;;;;;;5069809;28;20036;-81
2021/05/24 11:47:20;;;;;;;3.97;2.85;;;16.10;67.80;;;;;;5051954;28;20409;-81
2021/05/24 11:50:12;;;;;;;2.80;2.40;;;16.10;67.80;;;;;;5053225;28;20497;-79
2021/05/24 11:52:41;;;;;;;3.78;2.90;;;16.10;67.70;;;;;;5052672;28;20295;-78
2021/05/24 11:55:14;;;;;;;4.95;2.88;;;16.10;67.80;;;;;;5074278;28;20040;-77
2021/05/24 11:57:42;;;;;;;5.72;3.17;;;16.00;67.80;;;;;;5073006;28;20048;-77
2021/05/24 12:00:20;;;;;;;4.53;3.03;;;16.00;67.90;;;;;;5074543;28;20060;-79
2021/05/24 12:02:46;;;;;;;6.55;3.08;;;16.00;68.00;;;;;;5067656;28;20037;-82
2021/05/24 12:05:21;;;;;;;3.95;2.65;;;16.00;68.10;;;;;;5070585;28;20056;-80
2021/05/24 12:07:48;;;;;;;3.97;2.63;;;16.00;68.20;;;;;;5054114;28;20036;-80
2021/05/24 12:10:13;;;;;;;7.65;2.75;;;16.00;68.30;;;;;;5053773;28;20044;-79
2021/05/24 12:12:39;;;;;;;5.90;2.80;;;16.00;68.40;;;;;;5059558;28;20093;-81
2021/05/24 12:15:11;;;;;;;7.15;3.10;;;16.00;68.30;;;;;;5074115;28;20116;-83
2021/05/24 12:17:37;;;;;;;5.53;3.22;;;15.90;68.40;;;;;;5056609;28;20044;-85
2021/05/24 12:20:08;;;;;;;6.25;3.08;;;15.90;68.50;;;;;;5074051;28;20488;-82
2021/05/24 12:22:45;;;;;;;6.45;3.45;;;15.80;68.70;;;;;;5074795;28;20123;-87
2021/05/24 12:28:11;;;;;;;4.22;2.80;;;15.70;69.20;;;;;;5068557;28;20048;-80
2021/05/24 12:30:43;;;;;;;5.65;2.85;;;15.70;69.40;;;;;;5068367;28;20050;-82
2021/05/24 12:33:15;;;;;;;5.23;3.10;;;15.70;69.60;;;;;;5071834;28;20059;-84
2021/05/24 12:35:41;;;;;;;;;;;15.60;69.80;;;;;;5055248;28;20044;-90
2021/05/24 12:40:58;;;;;;;5.28;2.75;;;15.60;70.30;;;;;;5070719;28;20040;-81
2021/05/24 12:43:29;;;;;;;6.07;2.45;;;15.60;70.50;;;;;;5053616;28;20493;-81
2021/05/24 12:45:55;;;;;;;4.78;2.70;;;15.70;70.60;;;;;;5054575;28;20058;-79
2021/05/24 12:48:25;;;;;;;4.45;2.80;;;15.60;70.70;;;;;;5071222;28;20052;-81
2021/05/24 12:50:50;;;;;;;6.30;2.90;;;15.60;70.80;;;;;;5039339;28;20162;-82
2021/05/24 12:53:22;;;;;;;2.67;2.38;;;15.60;70.90;;;;;;5055527;28;20036;-82
2021/05/24 12:55:52;;;;;;;4.50;2.70;;;15.60;70.90;;;;;;5050831;28;20036;-81
2021/05/24 12:58:19;;;;;;;4.90;2.47;;;15.60;70.90;;;;;;5054924;28;20119;-82
2021/05/24 13:00:49;;;;;;;4.13;2.72;;;15.60;71.00;;;;;;5061180;28;20370;-82
2021/05/24 13:03:39;;;;;;;3.97;1.90;;;15.60;71.10;;;;;;5065603;28;20044;-82
2021/05/24 13:06:16;;;;;;;3.80;2.05;;;15.60;71.10;;;;;;5087428;28;20073;-80